createdAt,value
2019-04-01T00:58:31.524Z,99.90
2019-04-01T01:01:19.846Z,99.90
2019-04-01T01:04:07.893Z,99.90
2019-04-01T01:59:04.709Z,99.90
2019-04-01T02:01:53.039Z,99.90
2019-04-01T02:04:41.272Z,99.90
2019-04-01T03:45:57.245Z,99.90
2019-04-01T03:48:43.839Z,99.90
2019-04-01T03:51:31.909Z,99.90
2019-04-01T05:27:15.899Z,99.90
2019-04-01T05:30:03.149Z,99.90
2019-04-01T05:32:50.479Z,99.90
2019-04-01T05:35:37.835Z,99.90
2019-04-01T05:38:24.403Z,99.90
2019-04-01T05:41:11.802Z,99.90
2019-04-01T05:43:58.272Z,99.90
2019-04-01T05:46:42.794Z,99.90
2019-04-01T08:14:50.968Z,99.90
2019-04-01T08:17:39.116Z,99.90
2019-04-01T10:57:37.012Z,99.90
2019-04-01T11:00:25.299Z,99.90
2019-04-01T11:03:13.517Z,99.90
2019-04-01T12:31:52.339Z,95.30
2019-04-01T16:10:35.483Z,74.80
2019-04-01T16:13:22.853Z,71.20
2019-04-01T16:16:14.156Z,70.90
2019-04-01T16:19:00.133Z,70.00
2019-04-01T16:21:47.819Z,69.00
2019-04-01T16:24:35.237Z,67.70
2019-04-01T16:27:21.916Z,69.40
2019-04-01T16:30:09.237Z,69.90
2019-04-01T16:32:55.804Z,70.70
2019-04-01T16:35:43.164Z,69.90
2019-04-01T16:38:30.501Z,70.60
2019-04-01T16:41:17.938Z,70.30
2019-04-01T16:44:04.377Z,71.60
2019-04-01T16:46:50.833Z,73.10
2019-04-01T16:49:37.913Z,73.10
2019-04-01T16:52:24.452Z,76.20
2019-04-01T16:55:11.457Z,79.70
2019-04-01T17:00:54.801Z,83.50
2019-04-01T17:03:42.017Z,87.00
2019-04-01T17:09:28.085Z,91.80
2019-04-01T17:12:14.619Z,95.10
2019-04-01T17:15:03.478Z,96.90
2019-04-01T17:17:50.205Z,98.80
2019-04-01T17:20:37.307Z,99.90
2019-04-01T17:23:28.054Z,99.90
2019-04-01T17:26:12.951Z,99.90
2019-04-01T17:29:00.893Z,99.90
2019-04-01T17:31:47.935Z,99.90
2019-04-01T17:34:35.016Z,99.90
2019-04-01T17:37:21.586Z,99.90
2019-04-01T17:40:09.093Z,99.90
2019-04-01T17:42:56.483Z,99.90
2019-04-01T17:45:43.014Z,99.90
2019-04-01T17:48:29.556Z,99.90
2019-04-01T17:51:16.883Z,99.90
2019-04-01T17:54:03.582Z,99.90
2019-04-01T17:56:50.756Z,99.90
2019-04-01T17:59:37.348Z,99.90
2019-04-01T18:02:24.740Z,99.90
2019-04-01T18:05:11.215Z,99.90
2019-04-01T18:07:58.550Z,99.90
2019-04-01T18:10:48.595Z,99.90
2019-04-01T18:13:36.775Z,99.90
2019-04-01T18:16:23.498Z,99.90
2019-04-01T18:19:09.968Z,99.90
2019-04-01T18:24:46.619Z,99.90
2019-04-01T18:27:33.878Z,99.90
2019-04-01T18:30:21.268Z,99.90
2019-04-01T18:33:08.781Z,99.90
2019-04-01T18:35:55.348Z,99.90
2019-04-01T18:38:42.687Z,99.90
2019-04-01T18:41:29.856Z,99.90
2019-04-01T18:44:18.586Z,99.90
2019-04-01T18:47:04.598Z,99.90
2019-04-01T18:49:51.029Z,99.90
2019-04-01T18:52:38.354Z,99.90
2019-04-01T19:00:59.308Z,99.90
2019-04-01T19:03:45.004Z,99.90
2019-04-01T21:03:30.100Z,99.90
2019-04-01T21:06:18.399Z,99.90
2019-04-01T21:36:36.222Z,99.90
2019-04-01T21:39:25.513Z,99.90
